sensor_id;sensor_type;location;lat;lon;timestamp;P1;durP1;ratioP1;P2;durP2;ratioP2
64938;SDS011;51453;47.738;7.420;2023-02-16T00:01:45;11.05;;;8.80;;
64938;SDS011;51453;47.738;7.420;2023-02-16T00:04:18;11.40;;;8.70;;
64938;SDS011;51453;47.738;7.420;2023-02-16T00:06:47;11.82;;;8.43;;
64938;SDS011;51453;47.738;7.420;2023-02-16T00:09:13;11.27;;;8.18;;
64938;SDS011;51453;47.738;7.420;2023-02-16T00:11:39;11.63;;;8.68;;
64938;SDS011;51453;47.738;7.420;2023-02-16T00:14:24;10.68;;;7.97;;
64938;SDS011;51453;47.738;7.420;2023-02-16T00:16:54;11.18;;;8.10;;
64938;SDS011;51453;47.738;7.420;2023-02-16T00:21:50;9.55;;;7.45;;
64938;SDS011;51453;47.738;7.420;2023-02-16T00:24:17;9.85;;;7.90;;
64938;SDS011;51453;47.738;7.420;2023-02-16T00:26:43;10.50;;;8.18;;
64938;SDS011;51453;47.738;7.420;2023-02-16T00:29:18;11.55;;;8.00;;
64938;SDS011;51453;47.738;7.420;2023-02-16T00:31:47;9.75;;;7.68;;
64938;SDS011;51453;47.738;7.420;2023-02-16T00:34:23;11.48;;;8.23;;
64938;SDS011;51453;47.738;7.420;2023-02-16T00:36:52;10.48;;;7.90;;
64938;SDS011;51453;47.738;7.420;2023-02-16T00:39:19;11.50;;;7.80;;
64938;SDS011;51453;47.738;7.420;2023-02-16T00:41:44;10.38;;;7.65;;
64938;SDS011;51453;47.738;7.420;2023-02-16T00:44:34;9.25;;;7.53;;
64938;SDS011;51453;47.738;7.420;2023-02-16T00:52:41;11.30;;;7.70;;
64938;SDS011;51453;47.738;7.420;2023-02-16T00:55:12;10.35;;;7.68;;
64938;SDS011;51453;47.738;7.420;2023-02-16T00:57:51;8.95;;;7.05;;
64938;SDS011;51453;47.738;7.420;2023-02-16T01:00:26;9.38;;;7.35;;
64938;SDS011;51453;47.738;7.420;2023-02-16T01:02:57;9.50;;;6.82;;
64938;SDS011;51453;47.738;7.420;2023-02-16T01:05:24;8.23;;;6.75;;
64938;SDS011;51453;47.738;7.420;2023-02-16T01:07:50;8.85;;;7.15;;
64938;SDS011;51453;47.738;7.420;2023-02-16T01:10:35;10.05;;;7.40;;
64938;SDS011;51453;47.738;7.420;2023-02-16T01:13:20;9.40;;;6.97;;
64938;SDS011;51453;47.738;7.420;2023-02-16T01:15:47;8.00;;;6.35;;
64938;SDS011;51453;47.738;7.420;2023-02-16T01:18:14;9.10;;;6.80;;
64938;SDS011;51453;47.738;7.420;2023-02-16T01:20:42;9.68;;;7.13;;
64938;SDS011;51453;47.738;7.420;2023-02-16T01:23:07;8.25;;;6.32;;
64938;SDS011;51453;47.738;7.420;2023-02-16T01:25:37;9.25;;;7.03;;
64938;SDS011;51453;47.738;7.420;2023-02-16T01:28:09;8.88;;;6.65;;
64938;SDS011;51453;47.738;7.420;2023-02-16T01:30:45;8.18;;;6.63;;
64938;SDS011;51453;47.738;7.420;2023-02-16T01:33:11;10.02;;;7.03;;
64938;SDS011;51453;47.738;7.420;2023-02-16T01:35:37;9.13;;;6.50;;
64938;SDS011;51453;47.738;7.420;2023-02-16T01:38:03;10.38;;;6.72;;
64938;SDS011;51453;47.738;7.420;2023-02-16T01:43:14;8.65;;;6.70;;
64938;SDS011;51453;47.738;7.420;2023-02-16T01:46:04;7.93;;;6.00;;
64938;SDS011;51453;47.738;7.420;2023-02-16T01:48:35;8.98;;;6.60;;
64938;SDS011;51453;47.738;7.420;2023-02-16T01:51:15;7.10;;;6.00;;
64938;SDS011;51453;47.738;7.420;2023-02-16T01:57:05;8.50;;;7.03;;
64938;SDS011;51453;47.738;7.420;2023-02-16T02:02:11;9.82;;;6.45;;
64938;SDS011;51453;47.738;7.420;2023-02-16T02:12:47;8.60;;;6.20;;
64938;SDS011;51453;47.738;7.420;2023-02-16T02:15:17;9.73;;;6.30;;
64938;SDS011;51453;47.738;7.420;2023-02-16T02:17:46;7.65;;;6.32;;
64938;SDS011;51453;47.738;7.420;2023-02-16T02:32:27;8.13;;;6.10;;
64938;SDS011;51453;47.738;7.420;2023-02-16T02:35:17;7.70;;;6.37;;
64938;SDS011;51453;47.738;7.420;2023-02-16T02:43:20;8.45;;;6.15;;
64938;SDS011;51453;47.738;7.420;2023-02-16T02:45:55;7.68;;;5.97;;
64938;SDS011;51453;47.738;7.420;2023-02-16T02:48:36;7.35;;;6.03;;
64938;SDS011;51453;47.738;7.420;2023-02-16T02:51:02;7.60;;;6.05;;
64938;SDS011;51453;47.738;7.420;2023-02-16T02:53:59;6.38;;;5.32;;
64938;SDS011;51453;47.738;7.420;2023-02-16T02:56:51;7.78;;;5.50;;
64938;SDS011;51453;47.738;7.420;2023-02-16T02:59:59;8.25;;;5.78;;
64938;SDS011;51453;47.738;7.420;2023-02-16T03:02:47;7.28;;;5.70;;
64938;SDS011;51453;47.738;7.420;2023-02-16T03:05:15;8.35;;;5.47;;
64938;SDS011;51453;47.738;7.420;2023-02-16T03:07:44;7.30;;;5.85;;
64938;SDS011;51453;47.738;7.420;2023-02-16T03:10:34;6.25;;;5.13;;
64938;SDS011;51453;47.738;7.420;2023-02-16T03:13:27;6.50;;;4.97;;
64938;SDS011;51453;47.738;7.420;2023-02-16T03:15:58;7.25;;;5.20;;
64938;SDS011;51453;47.738;7.420;2023-02-16T03:18:31;7.70;;;5.10;;
64938;SDS011;51453;47.738;7.420;2023-02-16T03:21:18;7.45;;;5.35;;
64938;SDS011;51453;47.738;7.420;2023-02-16T03:24:02;7.53;;;6.13;;
64938;SDS011;51453;47.738;7.420;2023-02-16T03:26:50;7.32;;;5.50;;
64938;SDS011;51453;47.738;7.420;2023-02-16T03:29:35;7.88;;;5.60;;
64938;SDS011;51453;47.738;7.420;2023-02-16T03:32:01;7.70;;;5.40;;
64938;SDS011;51453;47.738;7.420;2023-02-16T03:34:27;6.60;;;5.30;;
64938;SDS011;51453;47.738;7.420;2023-02-16T03:36:55;6.57;;;5.40;;
64938;SDS011;51453;47.738;7.420;2023-02-16T03:39:23;6.68;;;5.20;;
64938;SDS011;51453;47.738;7.420;2023-02-16T03:41:51;6.60;;;5.43;;
64938;SDS011;51453;47.738;7.420;2023-02-16T03:44:18;6.05;;;4.82;;
64938;SDS011;51453;47.738;7.420;2023-02-16T03:46:44;6.13;;;5.05;;
64938;SDS011;51453;47.738;7.420;2023-02-16T03:49:13;6.38;;;5.20;;
64938;SDS011;51453;47.738;7.420;2023-02-16T03:51:39;6.03;;;4.88;;
64938;SDS011;51453;47.738;7.420;2023-02-16T03:54:04;6.43;;;4.97;;
64938;SDS011;51453;47.738;7.420;2023-02-16T03:56:30;8.30;;;5.70;;
64938;SDS011;51453;47.738;7.420;2023-02-16T03:58:56;5.75;;;5.00;;
64938;SDS011;51453;47.738;7.420;2023-02-16T04:01:21;6.18;;;5.10;;
64938;SDS011;51453;47.738;7.420;2023-02-16T04:03:47;6.10;;;5.15;;
64938;SDS011;51453;47.738;7.420;2023-02-16T04:06:13;6.53;;;5.20;;
64938;SDS011;51453;47.738;7.420;2023-02-16T04:08:39;5.95;;;5.18;;
64938;SDS011;51453;47.738;7.420;2023-02-16T04:11:04;6.80;;;5.20;;
64938;SDS011;51453;47.738;7.420;2023-02-16T04:13:50;7.25;;;5.40;;
64938;SDS011;51453;47.738;7.420;2023-02-16T04:16:16;7.85;;;5.50;;
64938;SDS011;51453;47.738;7.420;2023-02-16T04:18:41;6.68;;;5.35;;
64938;SDS011;51453;47.738;7.420;2023-02-16T04:21:07;6.45;;;4.85;;
64938;SDS011;51453;47.738;7.420;2023-02-16T04:23:33;7.05;;;4.85;;
64938;SDS011;51453;47.738;7.420;2023-02-16T04:25:58;6.50;;;5.15;;
64938;SDS011;51453;47.738;7.420;2023-02-16T04:28:24;6.38;;;5.03;;
64938;SDS011;51453;47.738;7.420;2023-02-16T04:30:49;6.13;;;4.72;;
64938;SDS011;51453;47.738;7.420;2023-02-16T04:33:15;6.35;;;5.03;;
64938;SDS011;51453;47.738;7.420;2023-02-16T04:35:41;6.13;;;4.88;;
64938;SDS011;51453;47.738;7.420;2023-02-16T04:38:07;6.68;;;5.18;;
64938;SDS011;51453;47.738;7.420;2023-02-16T04:40:32;8.27;;;5.22;;
64938;SDS011;51453;47.738;7.420;2023-02-16T04:42:58;6.05;;;4.68;;
64938;SDS011;51453;47.738;7.420;2023-02-16T04:45:24;5.68;;;4.63;;
64938;SDS011;51453;47.738;7.420;2023-02-16T04:47:49;5.47;;;4.43;;
64938;SDS011;51453;47.738;7.420;2023-02-16T04:50:15;6.13;;;4.70;;
64938;SDS011;51453;47.738;7.420;2023-02-16T04:52:40;5.93;;;4.93;;
64938;SDS011;51453;47.738;7.420;2023-02-16T04:55:06;7.43;;;4.70;;
64938;SDS011;51453;47.738;7.420;2023-02-16T04:57:35;7.15;;;5.00;;
64938;SDS011;51453;47.738;7.420;2023-02-16T05:00:07;5.93;;;4.90;;
64938;SDS011;51453;47.738;7.420;2023-02-16T05:02:38;6.28;;;4.90;;
64938;SDS011;51453;47.738;7.420;2023-02-16T05:05:04;7.18;;;5.13;;
64938;SDS011;51453;47.738;7.420;2023-02-16T05:07:29;5.25;;;4.68;;
64938;SDS011;51453;47.738;7.420;2023-02-16T05:09:55;6.65;;;5.00;;
64938;SDS011;51453;47.738;7.420;2023-02-16T05:12:21;5.88;;;4.80;;
64938;SDS011;51453;47.738;7.420;2023-02-16T05:15:05;5.95;;;4.85;;
64938;SDS011;51453;47.738;7.420;2023-02-16T05:17:31;6.10;;;4.60;;
64938;SDS011;51453;47.738;7.420;2023-02-16T05:19:57;5.57;;;4.43;;
64938;SDS011;51453;47.738;7.420;2023-02-16T05:22:24;6.03;;;4.80;;
64938;SDS011;51453;47.738;7.420;2023-02-16T05:24:52;6.07;;;4.90;;
64938;SDS011;51453;47.738;7.420;2023-02-16T05:27:19;5.65;;;4.45;;
64938;SDS011;51453;47.738;7.420;2023-02-16T05:29:46;5.50;;;4.60;;
64938;SDS011;51453;47.738;7.420;2023-02-16T05:32:12;4.85;;;4.35;;
64938;SDS011;51453;47.738;7.420;2023-02-16T05:34:38;5.63;;;4.80;;
64938;SDS011;51453;47.738;7.420;2023-02-16T05:37:04;5.38;;;4.50;;
64938;SDS011;51453;47.738;7.420;2023-02-16T05:39:30;5.50;;;4.40;;
64938;SDS011;51453;47.738;7.420;2023-02-16T05:41:55;6.97;;;4.97;;
64938;SDS011;51453;47.738;7.420;2023-02-16T05:44:21;5.63;;;4.57;;
64938;SDS011;51453;47.738;7.420;2023-02-16T05:46:47;6.90;;;5.20;;
64938;SDS011;51453;47.738;7.420;2023-02-16T05:49:13;5.35;;;4.68;;
64938;SDS011;51453;47.738;7.420;2023-02-16T05:51:39;5.07;;;4.30;;
64938;SDS011;51453;47.738;7.420;2023-02-16T05:54:05;6.00;;;4.90;;
64938;SDS011;51453;47.738;7.420;2023-02-16T05:56:31;5.63;;;4.60;;
64938;SDS011;51453;47.738;7.420;2023-02-16T05:58:58;5.07;;;4.30;;
64938;SDS011;51453;47.738;7.420;2023-02-16T06:01:24;6.90;;;4.80;;
64938;SDS011;51453;47.738;7.420;2023-02-16T06:03:51;5.25;;;4.40;;
64938;SDS011;51453;47.738;7.420;2023-02-16T06:06:17;4.88;;;4.30;;
64938;SDS011;51453;47.738;7.420;2023-02-16T06:08:43;5.80;;;4.43;;
64938;SDS011;51453;47.738;7.420;2023-02-16T06:11:09;6.68;;;4.50;;
64938;SDS011;51453;47.738;7.420;2023-02-16T06:13:54;6.53;;;4.78;;
64938;SDS011;51453;47.738;7.420;2023-02-16T06:16:24;6.35;;;4.72;;
64938;SDS011;51453;47.738;7.420;2023-02-16T06:18:51;5.38;;;4.45;;
64938;SDS011;51453;47.738;7.420;2023-02-16T06:21:17;5.68;;;4.80;;
64938;SDS011;51453;47.738;7.420;2023-02-16T06:23:43;6.85;;;4.70;;
64938;SDS011;51453;47.738;7.420;2023-02-16T06:26:09;5.82;;;4.35;;
64938;SDS011;51453;47.738;7.420;2023-02-16T06:28:34;5.70;;;4.60;;
64938;SDS011;51453;47.738;7.420;2023-02-16T06:31:00;5.53;;;4.80;;
64938;SDS011;51453;47.738;7.420;2023-02-16T06:33:26;7.00;;;4.78;;
64938;SDS011;51453;47.738;7.420;2023-02-16T06:35:51;5.85;;;4.85;;
64938;SDS011;51453;47.738;7.420;2023-02-16T06:38:17;6.03;;;4.68;;
64938;SDS011;51453;47.738;7.420;2023-02-16T06:40:43;7.07;;;4.55;;
64938;SDS011;51453;47.738;7.420;2023-02-16T06:43:09;7.05;;;4.90;;
64938;SDS011;51453;47.738;7.420;2023-02-16T06:45:34;6.22;;;4.70;;
64938;SDS011;51453;47.738;7.420;2023-02-16T06:48:00;5.78;;;4.50;;
64938;SDS011;51453;47.738;7.420;2023-02-16T06:50:26;5.40;;;4.50;;
64938;SDS011;51453;47.738;7.420;2023-02-16T06:52:51;6.18;;;4.63;;
64938;SDS011;51453;47.738;7.420;2023-02-16T06:55:17;5.38;;;4.35;;
64938;SDS011;51453;47.738;7.420;2023-02-16T06:57:42;9.05;;;4.53;;
64938;SDS011;51453;47.738;7.420;2023-02-16T07:00:08;7.28;;;4.85;;
64938;SDS011;51453;47.738;7.420;2023-02-16T07:02:34;6.63;;;4.63;;
64938;SDS011;51453;47.738;7.420;2023-02-16T07:05:00;5.78;;;4.35;;
64938;SDS011;51453;47.738;7.420;2023-02-16T07:07:26;6.72;;;4.55;;
64938;SDS011;51453;47.738;7.420;2023-02-16T07:09:52;6.18;;;4.43;;
64938;SDS011;51453;47.738;7.420;2023-02-16T07:12:17;8.65;;;4.43;;
64938;SDS011;51453;47.738;7.420;2023-02-16T07:14:43;5.18;;;4.28;;
64938;SDS011;51453;47.738;7.420;2023-02-16T07:17:09;5.78;;;4.63;;
64938;SDS011;51453;47.738;7.420;2023-02-16T07:19:34;5.38;;;4.45;;
64938;SDS011;51453;47.738;7.420;2023-02-16T07:22:00;6.03;;;4.63;;
64938;SDS011;51453;47.738;7.420;2023-02-16T07:24:26;5.25;;;4.50;;
64938;SDS011;51453;47.738;7.420;2023-02-16T07:26:52;5.88;;;4.55;;
64938;SDS011;51453;47.738;7.420;2023-02-16T07:29:19;5.20;;;4.15;;
64938;SDS011;51453;47.738;7.420;2023-02-16T07:31:44;5.53;;;4.18;;
64938;SDS011;51453;47.738;7.420;2023-02-16T07:34:10;4.72;;;4.15;;
64938;SDS011;51453;47.738;7.420;2023-02-16T07:36:36;5.00;;;3.97;;
64938;SDS011;51453;47.738;7.420;2023-02-16T07:39:02;5.28;;;4.78;;
64938;SDS011;51453;47.738;7.420;2023-02-16T07:41:28;6.00;;;4.60;;
64938;SDS011;51453;47.738;7.420;2023-02-16T07:43:54;4.75;;;4.15;;
64938;SDS011;51453;47.738;7.420;2023-02-16T07:46:19;4.60;;;4.03;;
64938;SDS011;51453;47.738;7.420;2023-02-16T07:48:46;4.75;;;4.25;;
64938;SDS011;51453;47.738;7.420;2023-02-16T07:51:18;5.38;;;4.30;;
64938;SDS011;51453;47.738;7.420;2023-02-16T07:53:47;4.75;;;4.18;;
64938;SDS011;51453;47.738;7.420;2023-02-16T07:56:20;5.60;;;4.45;;
64938;SDS011;51453;47.738;7.420;2023-02-16T07:58:47;4.93;;;4.25;;
64938;SDS011;51453;47.738;7.420;2023-02-16T08:01:16;6.00;;;4.20;;
64938;SDS011;51453;47.738;7.420;2023-02-16T08:03:42;4.65;;;3.75;;
64938;SDS011;51453;47.738;7.420;2023-02-16T08:06:08;6.03;;;4.40;;
64938;SDS011;51453;47.738;7.420;2023-02-16T08:08:34;4.85;;;4.35;;
64938;SDS011;51453;47.738;7.420;2023-02-16T08:11:06;4.80;;;4.30;;
64938;SDS011;51453;47.738;7.420;2023-02-16T08:13:33;6.45;;;4.55;;
64938;SDS011;51453;47.738;7.420;2023-02-16T08:15:59;5.00;;;4.50;;
64938;SDS011;51453;47.738;7.420;2023-02-16T08:18:25;5.72;;;4.40;;
64938;SDS011;51453;47.738;7.420;2023-02-16T08:20:50;6.28;;;4.80;;
64938;SDS011;51453;47.738;7.420;2023-02-16T08:23:16;5.80;;;4.80;;
64938;SDS011;51453;47.738;7.420;2023-02-16T08:25:41;5.03;;;4.53;;
64938;SDS011;51453;47.738;7.420;2023-02-16T08:28:08;6.30;;;4.68;;
64938;SDS011;51453;47.738;7.420;2023-02-16T08:30:33;5.55;;;4.20;;
64938;SDS011;51453;47.738;7.420;2023-02-16T08:33:00;5.55;;;4.60;;
64938;SDS011;51453;47.738;7.420;2023-02-16T08:35:29;5.88;;;4.35;;
64938;SDS011;51453;47.738;7.420;2023-02-16T08:37:57;5.25;;;4.72;;
64938;SDS011;51453;47.738;7.420;2023-02-16T08:40:23;5.90;;;4.65;;
64938;SDS011;51453;47.738;7.420;2023-02-16T08:42:50;6.53;;;5.13;;
64938;SDS011;51453;47.738;7.420;2023-02-16T08:45:16;5.45;;;4.88;;
64938;SDS011;51453;47.738;7.420;2023-02-16T08:47:42;5.90;;;4.65;;
64938;SDS011;51453;47.738;7.420;2023-02-16T08:50:08;5.55;;;4.70;;
64938;SDS011;51453;47.738;7.420;2023-02-16T08:52:35;5.78;;;4.43;;
64938;SDS011;51453;47.738;7.420;2023-02-16T08:55:01;4.93;;;4.40;;
64938;SDS011;51453;47.738;7.420;2023-02-16T08:57:27;5.35;;;4.53;;
64938;SDS011;51453;47.738;7.420;2023-02-16T08:59:53;5.95;;;5.13;;
64938;SDS011;51453;47.738;7.420;2023-02-16T09:02:38;6.53;;;5.18;;
64938;SDS011;51453;47.738;7.420;2023-02-16T09:05:04;5.38;;;4.28;;
64938;SDS011;51453;47.738;7.420;2023-02-16T09:07:30;6.03;;;4.43;;
64938;SDS011;51453;47.738;7.420;2023-02-16T09:09:59;5.20;;;4.22;;
64938;SDS011;51453;47.738;7.420;2023-02-16T09:12:26;6.25;;;4.47;;
64938;SDS011;51453;47.738;7.420;2023-02-16T09:14:54;6.28;;;4.53;;
64938;SDS011;51453;47.738;7.420;2023-02-16T09:17:19;7.60;;;4.68;;
64938;SDS011;51453;47.738;7.420;2023-02-16T09:19:45;5.50;;;4.60;;
64938;SDS011;51453;47.738;7.420;2023-02-16T09:22:10;6.07;;;5.15;;
64938;SDS011;51453;47.738;7.420;2023-02-16T09:24:37;5.70;;;4.72;;
64938;SDS011;51453;47.738;7.420;2023-02-16T09:27:02;5.72;;;4.70;;
64938;SDS011;51453;47.738;7.420;2023-02-16T09:29:28;5.63;;;4.90;;
64938;SDS011;51453;47.738;7.420;2023-02-16T09:31:54;5.57;;;4.90;;
64938;SDS011;51453;47.738;7.420;2023-02-16T09:34:20;7.47;;;5.45;;
64938;SDS011;51453;47.738;7.420;2023-02-16T09:36:47;5.55;;;4.72;;
64938;SDS011;51453;47.738;7.420;2023-02-16T09:39:14;5.50;;;4.68;;
64938;SDS011;51453;47.738;7.420;2023-02-16T09:41:52;5.43;;;4.60;;
64938;SDS011;51453;47.738;7.420;2023-02-16T09:47:02;6.10;;;4.68;;
64938;SDS011;51453;47.738;7.420;2023-02-16T09:49:39;6.03;;;5.03;;
64938;SDS011;51453;47.738;7.420;2023-02-16T09:55:09;6.82;;;5.00;;
64938;SDS011;51453;47.738;7.420;2023-02-16T10:05:34;5.70;;;4.35;;
64938;SDS011;51453;47.738;7.420;2023-02-16T10:08:33;5.30;;;4.60;;
64938;SDS011;51453;47.738;7.420;2023-02-16T10:11:13;6.60;;;4.90;;
64938;SDS011;51453;47.738;7.420;2023-02-16T10:19:34;4.60;;;4.15;;
64938;SDS011;51453;47.738;7.420;2023-02-16T10:22:12;6.60;;;4.95;;
64938;SDS011;51453;47.738;7.420;2023-02-16T10:24:43;5.68;;;4.70;;
64938;SDS011;51453;47.738;7.420;2023-02-16T10:27:16;6.18;;;4.63;;
64938;SDS011;51453;47.738;7.420;2023-02-16T10:29:42;6.60;;;4.80;;
64938;SDS011;51453;47.738;7.420;2023-02-16T10:32:20;5.63;;;4.63;;
64938;SDS011;51453;47.738;7.420;2023-02-16T10:34:48;5.60;;;4.70;;
64938;SDS011;51453;47.738;7.420;2023-02-16T10:37:22;5.05;;;4.22;;
64938;SDS011;51453;47.738;7.420;2023-02-16T10:43:03;6.50;;;5.05;;
64938;SDS011;51453;47.738;7.420;2023-02-16T10:45:45;5.63;;;4.82;;
64938;SDS011;51453;47.738;7.420;2023-02-16T10:48:17;5.93;;;4.47;;
64938;SDS011;51453;47.738;7.420;2023-02-16T10:53:41;5.53;;;4.35;;
64938;SDS011;51453;47.738;7.420;2023-02-16T11:04:44;5.32;;;4.30;;
64938;SDS011;51453;47.738;7.420;2023-02-16T11:07:30;6.28;;;4.18;;
64938;SDS011;51453;47.738;7.420;2023-02-16T11:09:59;7.43;;;3.67;;
64938;SDS011;51453;47.738;7.420;2023-02-16T11:12:42;4.80;;;3.95;;
64938;SDS011;51453;47.738;7.420;2023-02-16T11:20:25;5.25;;;3.60;;
64938;SDS011;51453;47.738;7.420;2023-02-16T11:22:52;4.20;;;3.60;;
64938;SDS011;51453;47.738;7.420;2023-02-16T11:25:24;4.72;;;3.97;;
64938;SDS011;51453;47.738;7.420;2023-02-16T11:27:52;5.47;;;3.60;;
64938;SDS011;51453;47.738;7.420;2023-02-16T11:30:21;7.55;;;4.10;;
64938;SDS011;51453;47.738;7.420;2023-02-16T11:33:21;4.67;;;3.37;;
64938;SDS011;51453;47.738;7.420;2023-02-16T11:35:49;4.82;;;3.90;;
64938;SDS011;51453;47.738;7.420;2023-02-16T11:41:31;5.40;;;4.05;;
64938;SDS011;51453;47.738;7.420;2023-02-16T11:43:57;4.80;;;3.70;;
64938;SDS011;51453;47.738;7.420;2023-02-16T11:46:24;4.78;;;3.85;;
64938;SDS011;51453;47.738;7.420;2023-02-16T11:48:50;4.25;;;3.45;;
64938;SDS011;51453;47.738;7.420;2023-02-16T11:51:28;5.40;;;3.67;;
64938;SDS011;51453;47.738;7.420;2023-02-16T11:54:00;5.75;;;3.70;;
64938;SDS011;51453;47.738;7.420;2023-02-16T11:56:38;4.15;;;3.30;;
64938;SDS011;51453;47.738;7.420;2023-02-16T11:59:18;4.63;;;3.55;;
64938;SDS011;51453;47.738;7.420;2023-02-16T12:10:20;6.22;;;3.65;;
64938;SDS011;51453;47.738;7.420;2023-02-16T12:29:48;3.83;;;3.28;;
64938;SDS011;51453;47.738;7.420;2023-02-16T12:45:39;4.40;;;3.20;;
64938;SDS011;51453;47.738;7.420;2023-02-16T12:50:50;3.75;;;3.35;;
64938;SDS011;51453;47.738;7.420;2023-02-16T12:53:20;3.28;;;2.90;;
64938;SDS011;51453;47.738;7.420;2023-02-16T12:56:00;4.03;;;3.17;;
64938;SDS011;51453;47.738;7.420;2023-02-16T12:58:37;3.20;;;2.90;;
64938;SDS011;51453;47.738;7.420;2023-02-16T13:01:14;3.17;;;2.88;;
64938;SDS011;51453;47.738;7.420;2023-02-16T13:03:57;4.60;;;3.42;;
64938;SDS011;51453;47.738;7.420;2023-02-16T13:12:04;4.30;;;3.33;;
64938;SDS011;51453;47.738;7.420;2023-02-16T13:14:37;9.20;;;3.33;;
64938;SDS011;51453;47.738;7.420;2023-02-16T13:19:43;3.45;;;2.92;;
64938;SDS011;51453;47.738;7.420;2023-02-16T13:25:38;3.42;;;3.13;;
64938;SDS011;51453;47.738;7.420;2023-02-16T13:33:50;3.00;;;2.67;;
64938;SDS011;51453;47.738;7.420;2023-02-16T13:36:45;6.20;;;2.95;;
64938;SDS011;51453;47.738;7.420;2023-02-16T13:45:17;4.35;;;3.10;;
64938;SDS011;51453;47.738;7.420;2023-02-16T13:47:50;3.40;;;2.55;;
64938;SDS011;51453;47.738;7.420;2023-02-16T13:52:47;3.53;;;2.92;;
64938;SDS011;51453;47.738;7.420;2023-02-16T14:00:39;3.22;;;2.70;;
64938;SDS011;51453;47.738;7.420;2023-02-16T14:05:54;3.28;;;2.60;;
64938;SDS011;51453;47.738;7.420;2023-02-16T14:08:40;5.18;;;2.85;;
64938;SDS011;51453;47.738;7.420;2023-02-16T14:11:06;3.72;;;2.90;;
64938;SDS011;51453;47.738;7.420;2023-02-16T14:16:25;3.50;;;2.72;;
64938;SDS011;51453;47.738;7.420;2023-02-16T14:18:54;4.47;;;2.75;;
64938;SDS011;51453;47.738;7.420;2023-02-16T14:21:31;3.03;;;2.75;;
64938;SDS011;51453;47.738;7.420;2023-02-16T14:24:02;4.07;;;2.58;;
64938;SDS011;51453;47.738;7.420;2023-02-16T14:26:30;6.93;;;2.78;;
64938;SDS011;51453;47.738;7.420;2023-02-16T14:35:04;7.07;;;2.58;;
64938;SDS011;51453;47.738;7.420;2023-02-16T14:37:43;3.05;;;2.60;;
64938;SDS011;51453;47.738;7.420;2023-02-16T14:42:45;3.83;;;2.55;;
64938;SDS011;51453;47.738;7.420;2023-02-16T14:58:58;4.97;;;2.60;;
64938;SDS011;51453;47.738;7.420;2023-02-16T15:01:37;2.92;;;2.50;;
64938;SDS011;51453;47.738;7.420;2023-02-16T15:04:05;3.35;;;2.33;;
64938;SDS011;51453;47.738;7.420;2023-02-16T15:06:41;5.25;;;2.42;;
64938;SDS011;51453;47.738;7.420;2023-02-16T15:12:14;3.15;;;2.47;;
64938;SDS011;51453;47.738;7.420;2023-02-16T15:14:52;3.10;;;2.60;;
64938;SDS011;51453;47.738;7.420;2023-02-16T15:20:42;3.30;;;2.28;;
64938;SDS011;51453;47.738;7.420;2023-02-16T15:22:57;2.60;;;2.40;;
64938;SDS011;51453;47.738;7.420;2023-02-16T15:28:13;3.03;;;2.30;;
64938;SDS011;51453;47.738;7.420;2023-02-16T15:30:49;3.25;;;2.45;;
64938;SDS011;51453;47.738;7.420;2023-02-16T15:35:55;4.35;;;2.42;;
64938;SDS011;51453;47.738;7.420;2023-02-16T15:38:31;2.30;;;2.05;;
64938;SDS011;51453;47.738;7.420;2023-02-16T15:40:59;3.10;;;2.65;;
64938;SDS011;51453;47.738;7.420;2023-02-16T15:43:50;2.70;;;2.17;;
64938;SDS011;51453;47.738;7.420;2023-02-16T15:49:11;2.45;;;2.08;;
64938;SDS011;51453;47.738;7.420;2023-02-16T15:51:39;3.13;;;2.33;;
64938;SDS011;51453;47.738;7.420;2023-02-16T15:54:12;3.17;;;2.40;;
64938;SDS011;51453;47.738;7.420;2023-02-16T15:56:46;2.95;;;2.50;;
64938;SDS011;51453;47.738;7.420;2023-02-16T16:02:48;3.38;;;2.15;;
64938;SDS011;51453;47.738;7.420;2023-02-16T16:07:25;3.60;;;2.60;;
64938;SDS011;51453;47.738;7.420;2023-02-16T16:09:54;2.75;;;2.47;;
64938;SDS011;51453;47.738;7.420;2023-02-16T16:12:21;3.90;;;2.33;;
64938;SDS011;51453;47.738;7.420;2023-02-16T16:14:54;3.03;;;2.45;;
64938;SDS011;51453;47.738;7.420;2023-02-16T16:17:27;4.20;;;2.47;;
64938;SDS011;51453;47.738;7.420;2023-02-16T16:20:00;2.42;;;2.22;;
64938;SDS011;51453;47.738;7.420;2023-02-16T16:22:57;2.85;;;2.30;;
64938;SDS011;51453;47.738;7.420;2023-02-16T16:28:12;3.70;;;2.40;;
64938;SDS011;51453;47.738;7.420;2023-02-16T16:36:21;2.53;;;2.30;;
64938;SDS011;51453;47.738;7.420;2023-02-16T16:39:07;3.58;;;2.45;;
64938;SDS011;51453;47.738;7.420;2023-02-16T16:41:34;2.97;;;2.60;;
64938;SDS011;51453;47.738;7.420;2023-02-16T16:44:00;2.20;;;2.00;;
64938;SDS011;51453;47.738;7.420;2023-02-16T16:46:26;3.05;;;2.38;;
64938;SDS011;51453;47.738;7.420;2023-02-16T16:48:55;3.80;;;2.70;;
64938;SDS011;51453;47.738;7.420;2023-02-16T16:54:05;3.33;;;2.10;;
64938;SDS011;51453;47.738;7.420;2023-02-16T16:56:54;3.03;;;2.47;;
64938;SDS011;51453;47.738;7.420;2023-02-16T16:59:20;4.22;;;2.55;;
64938;SDS011;51453;47.738;7.420;2023-02-16T17:01:46;2.97;;;2.25;;
64938;SDS011;51453;47.738;7.420;2023-02-16T17:04:14;3.13;;;2.53;;
64938;SDS011;51453;47.738;7.420;2023-02-16T17:06:40;3.00;;;2.20;;
64938;SDS011;51453;47.738;7.420;2023-02-16T17:09:06;2.53;;;2.10;;
64938;SDS011;51453;47.738;7.420;2023-02-16T17:11:33;2.35;;;2.00;;
64938;SDS011;51453;47.738;7.420;2023-02-16T17:14:06;3.30;;;2.60;;
64938;SDS011;51453;47.738;7.420;2023-02-16T17:16:38;3.50;;;2.53;;
64938;SDS011;51453;47.738;7.420;2023-02-16T17:19:06;3.45;;;2.50;;
64938;SDS011;51453;47.738;7.420;2023-02-16T17:21:34;3.08;;;2.40;;
64938;SDS011;51453;47.738;7.420;2023-02-16T17:24:00;2.33;;;2.10;;
64938;SDS011;51453;47.738;7.420;2023-02-16T17:26:26;3.13;;;2.70;;
64938;SDS011;51453;47.738;7.420;2023-02-16T17:28:51;3.05;;;2.42;;
64938;SDS011;51453;47.738;7.420;2023-02-16T17:34:05;4.88;;;3.20;;
64938;SDS011;51453;47.738;7.420;2023-02-16T17:36:32;4.70;;;3.22;;
64938;SDS011;51453;47.738;7.420;2023-02-16T17:38:59;6.60;;;4.32;;
64938;SDS011;51453;47.738;7.420;2023-02-16T17:41:28;5.60;;;3.83;;
64938;SDS011;51453;47.738;7.420;2023-02-16T17:43:58;6.85;;;4.00;;
64938;SDS011;51453;47.738;7.420;2023-02-16T17:46:28;7.40;;;4.22;;
64938;SDS011;51453;47.738;7.420;2023-02-16T17:48:57;6.28;;;4.45;;
64938;SDS011;51453;47.738;7.420;2023-02-16T17:51:27;6.45;;;4.78;;
64938;SDS011;51453;47.738;7.420;2023-02-16T17:54:04;9.50;;;5.28;;
64938;SDS011;51453;47.738;7.420;2023-02-16T17:56:33;7.82;;;5.30;;
64938;SDS011;51453;47.738;7.420;2023-02-16T17:59:01;10.40;;;6.28;;
64938;SDS011;51453;47.738;7.420;2023-02-16T18:01:29;10.43;;;6.15;;
64938;SDS011;51453;47.738;7.420;2023-02-16T18:04:00;9.80;;;5.90;;
64938;SDS011;51453;47.738;7.420;2023-02-16T18:06:43;9.70;;;5.70;;
64938;SDS011;51453;47.738;7.420;2023-02-16T18:09:15;12.05;;;7.20;;
64938;SDS011;51453;47.738;7.420;2023-02-16T18:11:52;10.82;;;6.50;;
64938;SDS011;51453;47.738;7.420;2023-02-16T18:14:24;12.10;;;7.75;;
64938;SDS011;51453;47.738;7.420;2023-02-16T18:16:56;11.98;;;7.18;;
64938;SDS011;51453;47.738;7.420;2023-02-16T18:19:34;13.45;;;7.97;;
64938;SDS011;51453;47.738;7.420;2023-02-16T18:22:01;12.02;;;7.25;;
64938;SDS011;51453;47.738;7.420;2023-02-16T18:24:32;11.18;;;6.90;;
64938;SDS011;51453;47.738;7.420;2023-02-16T18:27:04;13.50;;;7.57;;
64938;SDS011;51453;47.738;7.420;2023-02-16T18:29:31;13.57;;;8.20;;
64938;SDS011;51453;47.738;7.420;2023-02-16T18:31:56;13.55;;;8.60;;
64938;SDS011;51453;47.738;7.420;2023-02-16T18:34:22;14.57;;;8.50;;
64938;SDS011;51453;47.738;7.420;2023-02-16T18:36:48;13.75;;;8.35;;
64938;SDS011;51453;47.738;7.420;2023-02-16T18:39:13;13.05;;;8.18;;
64938;SDS011;51453;47.738;7.420;2023-02-16T18:41:39;14.23;;;8.85;;
64938;SDS011;51453;47.738;7.420;2023-02-16T18:44:05;12.80;;;8.20;;